Shinshinmaru — JD3332 — position and weather

sailwx.info

Track history (hours):
 
Tides and Currents Weather Stations Pressure Air Temp Water Temp Dewpoint Dewpoint Depression Visibility Wind Speed Wind Dir Waves Ship Positions

Shinshinmaru

Last reported at 2017-Dec-10 08:49 UTC. Time now 2017-Dec-14 04:25 UTC.
Position N 34°60' E 140°11'.

Length 74 m; draft 4.2 m.

Type: Tanker. MMSI: 431003616.

Date/timePositionNaut miles runAvg speedWind from/ knotsBaromVisibWave heightAir tempDewpointWater temp
2017-Dec-10 08:49N 34°60' E 140°11'413.5
2017-Dec-10 08:30N 34°58' E 140°07'1613.0
2017-Dec-10 07:15N 34°52' E 139°48'4 9.7
2017-Dec-10 06:48N 34°54' E 139°43'311.3
2017-Dec-10 06:30N 34°57' E 139°43'611.2
2017-Dec-10 06:00N 35°03' E 139°44'510.8
2017-Dec-10 05:30N 35°08' E 139°45'510.9
2017-Dec-10 05:01N 35°13' E 139°46'611.3
2017-Dec-10 04:30N 35°18' E 139°44'611.0
2017-Dec-10 04:00N 35°24' E 139°43'611.6
2017-Dec-10 03:31N 35°28' E 139°48'912.0
2017-Dec-10 02:45N 35°33' E 139°58'311.9
2017-Dec-10 02:30N 35°34' E 140°01'510.0
2017-Dec-10 02:00N 35°35' E 140°07'0 0.1
2017-Dec-10 01:30N 35°35' E 140°07'0 0.0
2017-Dec-10 01:00N 35°35' E 140°07'0 0.0
2017-Dec-10 00:30N 35°35' E 140°07'0 0.0
2017-Dec-10 00:00N 35°35' E 140°07'0 0.0
2017-Dec-09 23:30N 35°35' E 140°07'0 0.0
2017-Dec-09 23:00N 35°35' E 140°07'1 1.8
2017-Dec-09 22:30N 35°35' E 140°06'3 6.6
2017-Dec-09 22:00N 35°34' E 140°02'1 2.7
2017-Dec-09 21:30N 35°33' E 140°01'0 0.0
2017-Dec-09 21:00N 35°33' E 140°01'0 0.0
2017-Dec-09 20:30N 35°33' E 140°01'0 0.0
2017-Dec-09 20:00N 35°33' E 140°01'0 0.0
2017-Dec-09 19:30N 35°33' E 140°01'0 0.0
2017-Dec-09 19:00N 35°33' E 140°01'0 0.0
2017-Dec-09 18:30N 35°33' E 140°01'0 0.0
2017-Dec-09 18:00N 35°33' E 140°01'0 0.0
2017-Dec-09 17:30N 35°33' E 140°01'0 0.0
2017-Dec-09 17:00N 35°33' E 140°01'0 0.0
2017-Dec-09 16:30N 35°33' E 140°01'0 0.0
2017-Dec-09 16:00N 35°33' E 140°01'0 0.0
2017-Dec-09 15:30N 35°33' E 140°01'0 0.1
2017-Dec-09 15:00N 35°33' E 140°01'0 0.0
2017-Dec-09 14:30N 35°33' E 140°01'0 0.0
2017-Dec-09 14:00N 35°33' E 140°01'0 0.1
2017-Dec-09 13:30N 35°33' E 140°01'0 0.1
2017-Dec-09 13:00N 35°33' E 140°01'0 0.0
2017-Dec-09 12:30N 35°33' E 140°01'0 0.0
2017-Dec-09 12:00N 35°33' E 140°01'0 0.1
2017-Dec-09 11:30N 35°33' E 140°01'0 0.0
2017-Dec-09 11:00N 35°33' E 140°01'0 0.0
2017-Dec-09 10:30N 35°33' E 140°01'0 0.0
2017-Dec-09 10:00N 35°33' E 140°01'0 0.0
2017-Dec-09 09:30N 35°33' E 140°01'0 0.1
2017-Dec-09 09:00N 35°33' E 140°01'4 8.9
2017-Dec-09 08:30N 35°35' E 140°06'1 1.8
2017-Dec-09 08:00N 35°35' E 140°07'0 0.0
2017-Dec-09 07:30N 35°35' E 140°07'0 0.0
2017-Dec-09 07:00N 35°35' E 140°07'0 0.0
2017-Dec-09 06:30N 35°35' E 140°07'0 0.0
2017-Dec-09 06:00N 35°35' E 140°07'0 0.0
2017-Dec-09 05:30N 35°35' E 140°07'0 0.0
2017-Dec-09 05:00N 35°35' E 140°07'3 5.2
2017-Dec-09 04:30N 35°35' E 140°03'3 5.9
2017-Dec-09 04:00N 35°33' E 140°01'510.7
2017-Dec-09 03:30N 35°31' E 139°55'611.5
2017-Dec-09 03:00N 35°27' E 139°50'611.3
2017-Dec-09 02:30N 35°22' E 139°45'510.1
2017-Dec-09 02:01N 35°17' E 139°45'611.1
2017-Dec-09 01:30N 35°12' E 139°47'611.9
2017-Dec-09 01:00N 35°06' E 139°46'612.2
2017-Dec-09 00:30N 35°00' E 139°44'711.0
2017-Dec-08 23:55N 34°54' E 139°47'1611.2
2017-Dec-08 22:29N 34°58' E 140°06'  
2017-Dec-04 10:31N 35°33' E 140°00'3 5.9
2017-Dec-04 10:00N 35°32' E 139°57'611.6
2017-Dec-04 09:30N 35°28' E 139°51'611.5
2017-Dec-04 09:00N 35°24' E 139°46'611.3
2017-Dec-04 08:31N 35°19' E 139°44'611.1
2017-Dec-04 08:00N 35°13' E 139°47'611.2
2017-Dec-04 07:31N 35°08' E 139°45'612.2
2017-Dec-04 07:00N 35°03' E 139°40'713.2
2017-Dec-04 06:29N 34°59' E 139°33'1113.8
2017-Dec-04 05:43N 34°53' E 139°23'314.1
2017-Dec-04 05:30N 34°51' E 139°20'713.8
2017-Dec-04 05:00N 34°47' E 139°14'713.5
2017-Dec-04 04:28N 34°42' E 139°07'812.3
2017-Dec-04 03:51N 34°37' E 138°59'812.6
2017-Dec-04 03:13N 34°35' E 138°50'712.6
2017-Dec-04 02:40N 34°35' E 138°42'312.5
2017-Dec-04 02:25N 34°34' E 138°38'612.9
2017-Dec-04 01:56N 34°34' E 138°30'1012.9
2017-Dec-04 01:08N 34°33' E 138°18'16710.5
2017-Dec-03 09:12N 33°53' E 135°01'211.8
2017-Dec-03 09:00N 33°55' E 134°59'611.9
2017-Dec-03 08:30N 33°59' E 134°55'612.3
2017-Dec-03 08:00N 34°04' E 134°50'612.3
2017-Dec-03 07:30N 34°09' E 134°45'611.9
2017-Dec-03 07:00N 34°13' E 134°40'611.7
2017-Dec-03 06:30N 34°17' E 134°34'812.5
2017-Dec-03 05:51N 34°19' E 134°25'3 0.1
2017-Dec-01 11:16N 34°21' E 134°22'611.3
2017-Dec-01 10:42N 34°19' E 134°30'211.1
2017-Dec-01 10:29N 34°18' E 134°32'810.7
2017-Dec-01 09:44N 34°13' E 134°40'412.1
2017-Dec-01 09:24N 34°10' E 134°43'511.5
2017-Dec-01 08:59N 34°07' E 134°47'911.3
2017-Dec-01 08:14N 34°00' E 134°54'311.0
2017-Dec-01 08:00N 33°58' E 134°56'195 9.4
2017-Nov-30 11:17N 34°35' E 138°49'5 9.5
2017-Nov-30 10:46N 34°36' E 138°54'2 8.3
2017-Nov-30 10:28N 34°36' E 138°57'510.0
2017-Nov-30 09:58N 34°40' E 139°02'810.8
2017-Nov-30 09:12N 34°45' E 139°10'311.4
2017-Nov-30 08:57N 34°47' E 139°12'  
Track history (hours):
 
Tides and Currents Weather Stations Pressure Air Temp Water Temp Dewpoint Dewpoint Depression Visibility Wind Speed Wind Dir Waves Ship Positions

Shinshinmaru

Last reported at 2017-Dec-10 08:49 UTC. Time now 2017-Dec-14 04:25 UTC.
Position N 34°60' E 140°11'.

Length 74 m; draft 4.2 m.

Type: Tanker. MMSI: 431003616.

Date/timePositionNaut miles runAvg speedWind from/ knotsBaromVisibWave heightAir tempDewpointWater temp
2017-Dec-10 08:49N 34°60' E 140°11'413.5
2017-Dec-10 08:30N 34°58' E 140°07'1613.0
2017-Dec-10 07:15N 34°52' E 139°48'4 9.7
2017-Dec-10 06:48N 34°54' E 139°43'311.3
2017-Dec-10 06:30N 34°57' E 139°43'611.2
2017-Dec-10 06:00N 35°03' E 139°44'510.8
2017-Dec-10 05:30N 35°08' E 139°45'510.9
2017-Dec-10 05:01N 35°13' E 139°46'611.3
2017-Dec-10 04:30N 35°18' E 139°44'611.0
2017-Dec-10 04:00N 35°24' E 139°43'611.6
2017-Dec-10 03:31N 35°28' E 139°48'912.0
2017-Dec-10 02:45N 35°33' E 139°58'311.9
2017-Dec-10 02:30N 35°34' E 140°01'510.0
2017-Dec-10 02:00N 35°35' E 140°07'0 0.1
2017-Dec-10 01:30N 35°35' E 140°07'0 0.0
2017-Dec-10 01:00N 35°35' E 140°07'0 0.0
2017-Dec-10 00:30N 35°35' E 140°07'0 0.0
2017-Dec-10 00:00N 35°35' E 140°07'0 0.0
2017-Dec-09 23:30N 35°35' E 140°07'0 0.0
2017-Dec-09 23:00N 35°35' E 140°07'1 1.8
2017-Dec-09 22:30N 35°35' E 140°06'3 6.6
2017-Dec-09 22:00N 35°34' E 140°02'1 2.7
2017-Dec-09 21:30N 35°33' E 140°01'0 0.0
2017-Dec-09 21:00N 35°33' E 140°01'0 0.0
2017-Dec-09 20:30N 35°33' E 140°01'0 0.0
2017-Dec-09 20:00N 35°33' E 140°01'0 0.0
2017-Dec-09 19:30N 35°33' E 140°01'0 0.0
2017-Dec-09 19:00N 35°33' E 140°01'0 0.0
2017-Dec-09 18:30N 35°33' E 140°01'0 0.0
2017-Dec-09 18:00N 35°33' E 140°01'0 0.0
2017-Dec-09 17:30N 35°33' E 140°01'0 0.0
2017-Dec-09 17:00N 35°33' E 140°01'0 0.0
2017-Dec-09 16:30N 35°33' E 140°01'0 0.0
2017-Dec-09 16:00N 35°33' E 140°01'0 0.0
2017-Dec-09 15:30N 35°33' E 140°01'0 0.1
2017-Dec-09 15:00N 35°33' E 140°01'0 0.0
2017-Dec-09 14:30N 35°33' E 140°01'0 0.0
2017-Dec-09 14:00N 35°33' E 140°01'0 0.1
2017-Dec-09 13:30N 35°33' E 140°01'0 0.1
2017-Dec-09 13:00N 35°33' E 140°01'0 0.0
2017-Dec-09 12:30N 35°33' E 140°01'0 0.0
2017-Dec-09 12:00N 35°33' E 140°01'0 0.1
2017-Dec-09 11:30N 35°33' E 140°01'0 0.0
2017-Dec-09 11:00N 35°33' E 140°01'0 0.0
2017-Dec-09 10:30N 35°33' E 140°01'0 0.0
2017-Dec-09 10:00N 35°33' E 140°01'0 0.0
2017-Dec-09 09:30N 35°33' E 140°01'0 0.1
2017-Dec-09 09:00N 35°33' E 140°01'4 8.9
2017-Dec-09 08:30N 35°35' E 140°06'1 1.8
2017-Dec-09 08:00N 35°35' E 140°07'0 0.0
2017-Dec-09 07:30N 35°35' E 140°07'0 0.0
2017-Dec-09 07:00N 35°35' E 140°07'0 0.0
2017-Dec-09 06:30N 35°35' E 140°07'0 0.0
2017-Dec-09 06:00N 35°35' E 140°07'0 0.0
2017-Dec-09 05:30N 35°35' E 140°07'0 0.0
2017-Dec-09 05:00N 35°35' E 140°07'3 5.2
2017-Dec-09 04:30N 35°35' E 140°03'3 5.9
2017-Dec-09 04:00N 35°33' E 140°01'510.7
2017-Dec-09 03:30N 35°31' E 139°55'611.5
2017-Dec-09 03:00N 35°27' E 139°50'611.3
2017-Dec-09 02:30N 35°22' E 139°45'510.1
2017-Dec-09 02:01N 35°17' E 139°45'611.1
2017-Dec-09 01:30N 35°12' E 139°47'611.9
2017-Dec-09 01:00N 35°06' E 139°46'612.2
2017-Dec-09 00:30N 35°00' E 139°44'711.0
2017-Dec-08 23:55N 34°54' E 139°47'1611.2
2017-Dec-08 22:29N 34°58' E 140°06'  
2017-Dec-04 10:31N 35°33' E 140°00'3 5.9
2017-Dec-04 10:00N 35°32' E 139°57'611.6
2017-Dec-04 09:30N 35°28' E 139°51'611.5
2017-Dec-04 09:00N 35°24' E 139°46'611.3
2017-Dec-04 08:31N 35°19' E 139°44'611.1
2017-Dec-04 08:00N 35°13' E 139°47'611.2
2017-Dec-04 07:31N 35°08' E 139°45'612.2
2017-Dec-04 07:00N 35°03' E 139°40'713.2
2017-Dec-04 06:29N 34°59' E 139°33'1113.8
2017-Dec-04 05:43N 34°53' E 139°23'314.1
2017-Dec-04 05:30N 34°51' E 139°20'713.8
2017-Dec-04 05:00N 34°47' E 139°14'713.5
2017-Dec-04 04:28N 34°42' E 139°07'812.3
2017-Dec-04 03:51N 34°37' E 138°59'812.6
2017-Dec-04 03:13N 34°35' E 138°50'712.6
2017-Dec-04 02:40N 34°35' E 138°42'312.5
2017-Dec-04 02:25N 34°34' E 138°38'612.9
2017-Dec-04 01:56N 34°34' E 138°30'1012.9
2017-Dec-04 01:08N 34°33' E 138°18'16710.5
2017-Dec-03 09:12N 33°53' E 135°01'211.8
2017-Dec-03 09:00N 33°55' E 134°59'611.9
2017-Dec-03 08:30N 33°59' E 134°55'612.3
2017-Dec-03 08:00N 34°04' E 134°50'612.3
2017-Dec-03 07:30N 34°09' E 134°45'611.9
2017-Dec-03 07:00N 34°13' E 134°40'611.7
2017-Dec-03 06:30N 34°17' E 134°34'812.5
2017-Dec-03 05:51N 34°19' E 134°25'3 0.1
2017-Dec-01 11:16N 34°21' E 134°22'611.3
2017-Dec-01 10:42N 34°19' E 134°30'211.1
2017-Dec-01 10:29N 34°18' E 134°32'810.7
2017-Dec-01 09:44N 34°13' E 134°40'412.1
2017-Dec-01 09:24N 34°10' E 134°43'511.5
2017-Dec-01 08:59N 34°07' E 134°47'911.3
2017-Dec-01 08:14N 34°00' E 134°54'311.0
2017-Dec-01 08:00N 33°58' E 134°56'195 9.4
2017-Nov-30 11:17N 34°35' E 138°49'5 9.5
2017-Nov-30 10:46N 34°36' E 138°54'2 8.3
2017-Nov-30 10:28N 34°36' E 138°57'510.0
2017-Nov-30 09:58N 34°40' E 139°02'810.8
2017-Nov-30 09:12N 34°45' E 139°10'311.4
2017-Nov-30 08:57N 34°47' E 139°12'  

Dump ship's entire track history